createdAt,value
2023-03-17T00:01:16.481Z,87.88
2023-03-17T00:03:45.547Z,87.13
2023-03-17T00:06:16.872Z,87.23
2023-03-17T00:08:43.873Z,86.63
2023-03-17T00:11:15.174Z,85.66
2023-03-17T00:13:42.316Z,86.70
2023-03-17T00:16:17.731Z,88.15
2023-03-17T00:18:44.749Z,87.25
2023-03-17T00:21:16.294Z,86.14
2023-03-17T00:23:45.929Z,88.05
2023-03-17T00:26:12.401Z,86.30
2023-03-17T00:28:39.438Z,85.59
2023-03-17T00:31:17.849Z,85.90
2023-03-17T00:33:45.438Z,85.30
2023-03-17T00:36:32.957Z,84.74
2023-03-17T00:38:59.766Z,84.29
2023-03-17T00:41:27.294Z,83.77
2023-03-17T00:43:54.021Z,83.68
2023-03-17T00:46:29.048Z,83.36
2023-03-17T00:48:55.559Z,83.57
2023-03-17T00:51:23.310Z,83.74
2023-03-17T00:53:50.219Z,83.76
2023-03-17T00:56:19.907Z,83.94
2023-03-17T00:58:47.639Z,83.70
2023-03-17T01:01:14.852Z,83.92
2023-03-17T01:03:41.564Z,85.17
2023-03-17T01:06:11.512Z,83.81
2023-03-17T01:08:40.598Z,85.23
2023-03-17T01:11:07.383Z,84.67
2023-03-17T01:13:34.230Z,85.16
2023-03-17T01:16:01.149Z,83.33
2023-03-17T01:18:27.743Z,83.49
2023-03-17T01:20:54.605Z,83.61
2023-03-17T01:23:22.066Z,84.70
2023-03-17T01:25:49.117Z,84.30
2023-03-17T01:28:18.005Z,84.68
2023-03-17T01:30:45.199Z,84.81
2023-03-17T01:33:12.998Z,84.59
2023-03-17T01:35:41.305Z,85.60
2023-03-17T01:38:08.556Z,86.13
2023-03-17T01:40:42.461Z,86.06
2023-03-17T01:43:08.821Z,85.15
2023-03-17T01:46:12.945Z,86.94
2023-03-17T01:48:46.552Z,86.04
2023-03-17T01:51:18.397Z,85.86
2023-03-17T01:53:48.120Z,85.69
2023-03-17T01:56:16.913Z,85.61
2023-03-17T01:58:44.166Z,86.93
2023-03-17T02:01:11.571Z,87.04
2023-03-17T02:03:38.927Z,87.78
2023-03-17T02:06:07.207Z,86.47
2023-03-17T02:08:33.603Z,87.03
2023-03-17T02:11:02.098Z,86.60
2023-03-17T02:13:28.716Z,86.54
2023-03-17T02:15:55.613Z,86.24
2023-03-17T02:18:23.718Z,85.85
2023-03-17T02:20:50.085Z,85.61
2023-03-17T02:23:23.822Z,85.67
2023-03-17T02:25:52.471Z,85.61
2023-03-17T02:28:25.935Z,86.30
2023-03-17T02:30:52.751Z,86.96
2023-03-17T02:33:19.199Z,86.90
2023-03-17T02:35:46.181Z,85.77
2023-03-17T02:38:12.669Z,85.17
2023-03-17T02:40:39.137Z,86.12
2023-03-17T02:43:05.737Z,86.34
2023-03-17T02:45:32.206Z,85.23
2023-03-17T02:47:59.321Z,85.25
2023-03-17T02:50:28.785Z,85.12
2023-03-17T02:52:56.044Z,85.55
2023-03-17T02:55:22.535Z,85.55
2023-03-17T02:57:48.958Z,86.27
2023-03-17T03:00:15.725Z,86.70
2023-03-17T03:02:42.486Z,86.24
2023-03-17T03:05:09.636Z,86.23
2023-03-17T03:07:36.576Z,86.38
2023-03-17T03:10:04.060Z,86.59
2023-03-17T03:12:30.524Z,86.64
2023-03-17T03:14:56.957Z,86.46
2023-03-17T03:17:23.707Z,86.97
2023-03-17T03:19:50.465Z,87.21
2023-03-17T03:22:16.934Z,87.35
2023-03-17T03:24:43.945Z,87.26
2023-03-17T03:27:10.896Z,86.94
2023-03-17T03:29:38.229Z,86.19
2023-03-17T03:32:04.931Z,86.31
2023-03-17T03:34:31.855Z,86.35
2023-03-17T03:36:58.359Z,86.44
2023-03-17T03:39:24.885Z,86.35
2023-03-17T03:41:51.317Z,85.91
2023-03-17T03:44:17.777Z,86.15
2023-03-17T03:46:44.223Z,86.21
2023-03-17T03:49:10.753Z,86.15
2023-03-17T03:51:37.191Z,87.15
2023-03-17T03:54:03.790Z,87.43
2023-03-17T03:56:30.264Z,88.27
2023-03-17T03:58:57.145Z,89.22
2023-03-17T04:01:24.556Z,90.24
2023-03-17T04:03:51.251Z,91.15
2023-03-17T04:06:17.811Z,92.78
2023-03-17T04:08:44.455Z,92.87
2023-03-17T04:11:10.896Z,93.74
2023-03-17T04:13:38.352Z,92.82
2023-03-17T04:16:05.064Z,93.40
2023-03-17T04:18:31.639Z,94.58
2023-03-17T04:20:58.085Z,95.38
2023-03-17T04:23:24.512Z,96.79
2023-03-17T04:25:52.955Z,97.76
2023-03-17T04:28:20.495Z,96.80
2023-03-17T04:30:47.048Z,96.99
2023-03-17T04:33:13.765Z,96.23
2023-03-17T04:35:40.687Z,96.09
2023-03-17T04:38:07.207Z,95.56
2023-03-17T04:40:33.689Z,95.89
2023-03-17T04:43:01.882Z,97.10
2023-03-17T04:45:29.895Z,97.73
2023-03-17T04:47:56.385Z,98.00
2023-03-17T04:50:22.880Z,99.02
2023-03-17T04:52:49.349Z,100.00
2023-03-17T04:55:16.534Z,100.00
2023-03-17T04:57:43.836Z,99.71
2023-03-17T05:00:12.712Z,99.70
2023-03-17T05:02:39.307Z,99.82
2023-03-17T05:05:06.056Z,100.00
2023-03-17T05:07:34.112Z,99.38
2023-03-17T05:10:00.925Z,98.75
2023-03-17T05:12:28.171Z,99.62
2023-03-17T05:14:56.232Z,98.67
2023-03-17T05:17:22.691Z,99.02
2023-03-17T05:19:49.249Z,99.59
2023-03-17T05:22:15.820Z,99.13
2023-03-17T05:24:43.028Z,99.19
2023-03-17T05:27:09.654Z,99.39
2023-03-17T05:29:36.189Z,100.00
2023-03-17T05:32:02.705Z,100.00
2023-03-17T05:34:32.401Z,100.00
2023-03-17T05:36:58.842Z,100.00
2023-03-17T05:39:25.650Z,100.00
2023-03-17T05:41:55.055Z,100.00
2023-03-17T05:44:21.668Z,100.00
2023-03-17T05:46:51.466Z,100.00
2023-03-17T05:49:18.756Z,100.00
2023-03-17T05:51:45.168Z,100.00
2023-03-17T05:54:11.650Z,100.00
2023-03-17T05:56:38.841Z,100.00
2023-03-17T05:59:05.453Z,100.00
2023-03-17T06:01:32.462Z,100.00
2023-03-17T06:04:00.984Z,100.00
2023-03-17T06:06:28.663Z,100.00
2023-03-17T06:08:57.326Z,100.00
2023-03-17T06:11:23.857Z,100.00
2023-03-17T06:13:53.426Z,100.00
2023-03-17T06:16:20.694Z,100.00
2023-03-17T06:18:47.126Z,100.00
2023-03-17T06:21:14.594Z,100.00
2023-03-17T06:23:44.312Z,100.00
2023-03-17T06:26:10.981Z,100.00
2023-03-17T06:28:40.167Z,100.00
2023-03-17T06:31:07.430Z,100.00
2023-03-17T06:33:35.514Z,100.00
2023-03-17T06:36:03.449Z,100.00
2023-03-17T06:38:30.513Z,100.00
2023-03-17T06:40:58.146Z,100.00
2023-03-17T06:43:26.239Z,100.00
2023-03-17T06:45:52.757Z,100.00
2023-03-17T06:48:23.724Z,100.00
2023-03-17T06:50:50.343Z,100.00
2023-03-17T06:53:17.417Z,100.00
2023-03-17T06:55:50.584Z,100.00
2023-03-17T06:58:17.058Z,100.00
2023-03-17T07:00:48.309Z,100.00
2023-03-17T07:03:15.872Z,100.00
2023-03-17T07:05:43.088Z,100.00
2023-03-17T07:08:12.039Z,100.00
2023-03-17T07:10:41.555Z,100.00
2023-03-17T07:13:15.950Z,100.00
2023-03-17T07:15:47.849Z,100.00
2023-03-17T07:18:14.847Z,100.00
2023-03-17T07:20:43.333Z,99.70
2023-03-17T07:23:23.150Z,99.24
2023-03-17T07:25:50.726Z,99.15
2023-03-17T07:28:23.642Z,98.25
2023-03-17T07:30:51.043Z,97.05
2023-03-17T07:33:21.231Z,97.60
2023-03-17T07:35:49.600Z,98.04
2023-03-17T07:38:18.264Z,98.76
2023-03-17T07:40:47.699Z,99.18
2023-03-17T07:43:16.191Z,98.54
2023-03-17T07:45:47.049Z,98.58
2023-03-17T07:48:19.272Z,98.25
2023-03-17T07:50:45.918Z,97.69
2023-03-17T07:53:13.916Z,96.79
2023-03-17T07:55:41.558Z,95.46
2023-03-17T07:58:09.252Z,92.72
2023-03-17T08:00:36.052Z,91.39
2023-03-17T08:03:10.312Z,91.19
2023-03-17T08:05:38.164Z,90.57
2023-03-17T08:08:06.654Z,90.37
2023-03-17T08:10:36.469Z,90.42
2023-03-17T08:13:04.148Z,88.76
2023-03-17T08:15:31.431Z,88.62
2023-03-17T08:17:58.374Z,86.76
2023-03-17T08:20:25.351Z,86.58
2023-03-17T08:22:52.042Z,84.30
2023-03-17T08:25:18.690Z,79.57
2023-03-17T08:27:49.015Z,81.07
2023-03-17T08:30:16.464Z,81.59
2023-03-17T08:32:43.767Z,80.01
2023-03-17T08:35:17.343Z,76.82
2023-03-17T08:37:45.426Z,77.96
2023-03-17T08:40:17.057Z,79.41
2023-03-17T08:42:46.374Z,80.58
2023-03-17T08:45:16.610Z,80.39
2023-03-17T08:47:43.297Z,80.36
2023-03-17T08:50:14.851Z,81.45
2023-03-17T08:52:41.699Z,80.20
2023-03-17T08:55:09.108Z,77.92
2023-03-17T08:57:36.328Z,80.02
2023-03-17T09:00:10.915Z,78.67
2023-03-17T09:02:38.696Z,78.10
2023-03-17T09:05:07.364Z,76.31
2023-03-17T09:07:34.192Z,75.39
2023-03-17T09:10:02.013Z,76.44
2023-03-17T09:12:28.945Z,75.69
2023-03-17T09:14:58.965Z,73.77
2023-03-17T09:17:25.442Z,71.46
2023-03-17T09:19:51.996Z,68.43
2023-03-17T09:22:19.021Z,69.01
2023-03-17T09:24:46.631Z,69.95
2023-03-17T09:27:13.718Z,66.34
2023-03-17T09:29:44.897Z,63.67
2023-03-17T09:32:11.365Z,60.38
2023-03-17T09:34:40.570Z,61.70
2023-03-17T09:37:07.308Z,63.53
2023-03-17T09:39:34.238Z,61.30
2023-03-17T09:42:19.156Z,60.94
2023-03-17T09:45:00.850Z,60.37
2023-03-17T09:47:45.328Z,57.50
2023-03-17T09:50:25.883Z,55.73
2023-03-17T09:52:55.474Z,58.69
2023-03-17T09:55:31.231Z,58.92
2023-03-17T09:57:59.035Z,58.16
2023-03-17T10:00:29.249Z,56.72
2023-03-17T10:02:58.206Z,55.14
2023-03-17T10:05:35.109Z,55.68
2023-03-17T10:08:22.785Z,51.17
2023-03-17T10:11:39.129Z,47.18
2023-03-17T10:14:27.472Z,49.25
2023-03-17T10:17:07.321Z,50.05
2023-03-17T10:19:53.099Z,49.16
2023-03-17T10:22:25.394Z,51.73
2023-03-17T10:24:57.119Z,49.10
2023-03-17T10:27:24.515Z,45.64
2023-03-17T10:29:53.465Z,47.62
2023-03-17T10:32:19.941Z,47.66
2023-03-17T10:34:48.737Z,46.42
2023-03-17T10:37:19.499Z,42.54
2023-03-17T10:39:52.823Z,44.93
2023-03-17T10:42:25.444Z,44.94
2023-03-17T10:45:14.619Z,46.86
2023-03-17T10:47:48.826Z,48.23
2023-03-17T10:50:15.593Z,43.00
2023-03-17T10:53:12.086Z,45.48
2023-03-17T10:56:09.888Z,39.44
2023-03-17T10:58:52.208Z,43.69
2023-03-17T11:01:21.944Z,42.55
2023-03-17T11:03:49.365Z,43.83
2023-03-17T11:06:20.559Z,41.36
2023-03-17T11:08:55.958Z,41.87
2023-03-17T11:11:33.600Z,39.33
2023-03-17T11:14:05.141Z,40.71
2023-03-17T11:16:38.044Z,40.82
2023-03-17T11:19:10.477Z,40.73
2023-03-17T11:22:07.542Z,42.00
2023-03-17T11:24:46.059Z,42.11
2023-03-17T11:27:29.330Z,41.26
2023-03-17T11:29:55.818Z,39.54
2023-03-17T11:32:31.681Z,41.23
2023-03-17T11:35:23.820Z,39.90
2023-03-17T11:38:26.646Z,38.82
2023-03-17T11:41:17.801Z,38.92
2023-03-17T11:44:27.162Z,38.22
2023-03-17T11:47:07.733Z,39.00
2023-03-17T11:49:39.113Z,37.79
2023-03-17T11:52:11.399Z,37.74
2023-03-17T11:54:41.529Z,38.24
2023-03-17T11:57:40.328Z,36.92
2023-03-17T12:00:36.112Z,36.05
2023-03-17T12:03:05.592Z,38.65
2023-03-17T12:05:34.656Z,39.15
2023-03-17T12:08:21.124Z,38.86
2023-03-17T12:10:54.797Z,39.39
2023-03-17T12:13:45.719Z,37.51
2023-03-17T12:16:19.346Z,38.57
2023-03-17T12:18:49.955Z,37.78
2023-03-17T12:22:07.217Z,38.11
2023-03-17T12:24:44.069Z,37.92
2023-03-17T12:27:17.139Z,38.67
2023-03-17T12:29:49.887Z,37.50
2023-03-17T12:32:22.030Z,38.53
2023-03-17T12:35:02.245Z,38.29
2023-03-17T12:37:30.300Z,38.88
2023-03-17T12:40:05.331Z,38.99
2023-03-17T12:42:42.523Z,39.37
2023-03-17T12:45:19.961Z,38.04
2023-03-17T12:48:19.608Z,38.01
2023-03-17T12:50:55.331Z,39.40
2023-03-17T12:53:34.421Z,38.59
2023-03-17T12:56:18.631Z,38.23
2023-03-17T12:58:48.646Z,39.39
2023-03-17T13:01:24.334Z,39.33
2023-03-17T13:04:33.002Z,38.43
2023-03-17T13:07:09.142Z,39.12
2023-03-17T13:09:44.033Z,39.43
2023-03-17T13:12:42.246Z,39.71
2023-03-17T13:15:30.925Z,39.51
2023-03-17T13:18:13.700Z,38.97
2023-03-17T13:20:45.629Z,40.11
2023-03-17T13:23:16.083Z,40.00
2023-03-17T13:25:53.729Z,39.80
2023-03-17T13:28:41.559Z,38.46
2023-03-17T13:31:33.585Z,39.41
2023-03-17T13:34:15.926Z,38.94
2023-03-17T13:37:02.570Z,39.55
2023-03-17T13:40:13.973Z,37.55
2023-03-17T13:43:21.327Z,38.25
2023-03-17T13:45:49.084Z,39.99
2023-03-17T13:48:30.339Z,38.84
2023-03-17T13:51:02.174Z,39.33
2023-03-17T13:53:31.676Z,38.97
2023-03-17T13:56:36.894Z,38.53
2023-03-17T13:59:05.112Z,38.33
2023-03-17T14:01:39.689Z,38.93
2023-03-17T14:04:22.092Z,39.00
2023-03-17T14:06:51.621Z,40.27
2023-03-17T14:09:31.383Z,39.91
2023-03-17T14:12:00.387Z,39.62
2023-03-17T14:14:51.064Z,38.42
2023-03-17T14:17:28.217Z,38.94
2023-03-17T14:20:06.399Z,40.23
2023-03-17T14:22:34.298Z,39.75
2023-03-17T14:25:01.904Z,39.42
2023-03-17T14:27:34.119Z,39.80
2023-03-17T14:30:19.238Z,39.11
2023-03-17T14:32:49.001Z,39.06
2023-03-17T14:35:16.231Z,39.19
2023-03-17T14:37:44.475Z,39.04
2023-03-17T14:40:24.755Z,39.49
2023-03-17T14:42:51.671Z,38.80
2023-03-17T14:45:28.540Z,39.12
2023-03-17T14:47:55.650Z,39.62
2023-03-17T14:50:31.458Z,39.23
2023-03-17T14:53:00.227Z,39.49
2023-03-17T14:55:45.421Z,37.27
2023-03-17T14:58:30.769Z,37.18
2023-03-17T15:01:02.895Z,38.70
2023-03-17T15:03:33.058Z,39.36
2023-03-17T15:06:22.826Z,39.38
2023-03-17T15:08:50.970Z,39.01
2023-03-17T15:11:26.900Z,39.32
2023-03-17T15:13:57.022Z,39.54
2023-03-17T15:16:31.728Z,38.73
2023-03-17T15:19:03.435Z,37.90
2023-03-17T15:21:33.614Z,38.79
2023-03-17T15:24:24.825Z,38.71
2023-03-17T15:27:05.718Z,37.74
2023-03-17T15:29:32.544Z,38.55
2023-03-17T15:32:11.751Z,39.04
2023-03-17T15:34:38.462Z,38.75
2023-03-17T15:37:13.421Z,38.98
2023-03-17T15:39:39.953Z,39.06
2023-03-17T15:42:06.686Z,39.15
2023-03-17T15:44:33.413Z,38.41
2023-03-17T15:47:00.133Z,39.39
2023-03-17T15:49:27.051Z,39.49
2023-03-17T15:51:53.659Z,38.64
2023-03-17T15:54:20.109Z,38.90
2023-03-17T15:56:46.748Z,39.07
2023-03-17T15:59:13.310Z,38.59
2023-03-17T16:01:39.939Z,38.63
2023-03-17T16:04:06.946Z,39.43
2023-03-17T16:06:35.568Z,39.87
2023-03-17T16:09:02.143Z,40.02
2023-03-17T16:11:31.163Z,39.48
2023-03-17T16:13:59.615Z,39.24
2023-03-17T16:16:34.931Z,38.83
2023-03-17T16:19:02.338Z,39.56
2023-03-17T16:21:29.681Z,39.43
2023-03-17T16:23:56.524Z,40.03
2023-03-17T16:26:23.054Z,40.54
2023-03-17T16:28:49.903Z,39.94
2023-03-17T16:31:21.256Z,38.31
2023-03-17T16:33:48.555Z,38.80
2023-03-17T16:36:17.787Z,37.51
2023-03-17T16:38:47.689Z,38.58
2023-03-17T16:41:22.138Z,38.83
2023-03-17T16:43:57.586Z,39.07
2023-03-17T16:46:27.098Z,39.99
2023-03-17T16:48:53.783Z,40.02
2023-03-17T16:51:20.841Z,40.08
2023-03-17T16:53:47.719Z,40.57
2023-03-17T16:56:20.819Z,40.77
2023-03-17T16:58:48.063Z,41.32
2023-03-17T17:01:22.190Z,41.38
2023-03-17T17:03:49.932Z,41.19
2023-03-17T17:06:18.488Z,41.79
2023-03-17T17:08:46.113Z,42.23
2023-03-17T17:11:14.962Z,42.72
2023-03-17T17:13:43.269Z,43.16
2023-03-17T17:16:26.012Z,43.54
2023-03-17T17:18:53.312Z,43.57
2023-03-17T17:21:20.160Z,43.90
2023-03-17T17:23:47.034Z,44.26
2023-03-17T17:26:13.646Z,44.55
2023-03-17T17:28:40.757Z,44.39
2023-03-17T17:31:08.490Z,44.57
2023-03-17T17:33:36.687Z,45.03
2023-03-17T17:36:12.725Z,45.21
2023-03-17T17:38:39.806Z,45.10
2023-03-17T17:41:08.909Z,45.36
2023-03-17T17:43:35.585Z,45.90
2023-03-17T17:46:02.193Z,46.25
2023-03-17T17:48:29.157Z,46.52
2023-03-17T17:50:56.873Z,46.87
2023-03-17T17:53:23.660Z,47.17
2023-03-17T17:55:51.103Z,47.68
2023-03-17T17:58:23.309Z,48.60
2023-03-17T18:00:50.906Z,48.01
2023-03-17T18:03:17.414Z,48.17
2023-03-17T18:05:44.306Z,49.44
2023-03-17T18:08:14.363Z,49.53
2023-03-17T18:10:41.320Z,49.49
2023-03-17T18:13:07.951Z,49.56
2023-03-17T18:15:34.497Z,49.92
2023-03-17T18:18:01.167Z,50.22
2023-03-17T18:20:27.948Z,50.07
2023-03-17T18:22:54.417Z,49.82
2023-03-17T18:25:20.885Z,50.23
2023-03-17T18:27:48.253Z,50.29
2023-03-17T18:30:22.276Z,51.01
2023-03-17T18:32:50.825Z,51.42
2023-03-17T18:35:20.899Z,51.69
2023-03-17T18:37:48.357Z,52.17
2023-03-17T18:40:18.809Z,52.26
2023-03-17T18:42:45.990Z,52.28
2023-03-17T18:45:12.608Z,52.88
2023-03-17T18:47:40.926Z,53.21
2023-03-17T18:50:09.169Z,53.48
2023-03-17T18:52:37.839Z,53.97
2023-03-17T18:55:05.240Z,54.61
2023-03-17T18:57:31.849Z,55.52
2023-03-17T18:59:58.311Z,55.76
2023-03-17T19:02:24.935Z,56.28
2023-03-17T19:04:51.384Z,56.20
2023-03-17T19:07:17.971Z,56.56
2023-03-17T19:09:45.014Z,57.79
2023-03-17T19:12:12.150Z,58.15
2023-03-17T19:14:38.866Z,59.33
2023-03-17T19:17:06.273Z,60.12
2023-03-17T19:19:34.023Z,61.47
2023-03-17T19:22:01.346Z,61.00
2023-03-17T19:24:27.942Z,62.28
2023-03-17T19:26:54.399Z,62.34
2023-03-17T19:29:20.971Z,61.95
2023-03-17T19:31:48.547Z,62.31
2023-03-17T19:34:15.478Z,61.81
2023-03-17T19:36:43.577Z,61.42
2023-03-17T19:39:10.936Z,61.84
2023-03-17T19:41:37.609Z,61.57
2023-03-17T19:44:06.692Z,62.49
2023-03-17T19:46:34.347Z,62.58
2023-03-17T19:49:01.209Z,63.52
2023-03-17T19:51:27.652Z,63.50
2023-03-17T19:53:55.452Z,63.66
2023-03-17T19:56:23.085Z,64.00
2023-03-17T19:58:51.136Z,64.45
2023-03-17T20:01:17.931Z,64.36
2023-03-17T20:03:44.399Z,64.59
2023-03-17T20:06:13.057Z,65.09
2023-03-17T20:08:43.361Z,65.63
2023-03-17T20:11:11.510Z,67.03
2023-03-17T20:13:38.401Z,68.82
2023-03-17T20:16:06.783Z,71.46
2023-03-17T20:18:34.017Z,72.38
2023-03-17T20:21:01.564Z,73.99
2023-03-17T20:23:28.045Z,75.15
2023-03-17T20:25:54.454Z,75.82
2023-03-17T20:28:21.597Z,74.56
2023-03-17T20:30:49.453Z,75.03
2023-03-17T20:33:17.116Z,75.23
2023-03-17T20:35:46.824Z,75.88
2023-03-17T20:38:14.684Z,76.05
2023-03-17T20:40:41.954Z,77.78
2023-03-17T20:43:09.364Z,78.87
2023-03-17T20:45:37.015Z,79.55
2023-03-17T20:48:04.976Z,78.25
2023-03-17T20:50:32.740Z,77.71
2023-03-17T20:52:59.855Z,78.03
2023-03-17T20:55:27.741Z,78.94
2023-03-17T20:57:54.267Z,79.10
2023-03-17T21:00:21.951Z,78.25
2023-03-17T21:02:50.347Z,78.23
2023-03-17T21:05:22.990Z,78.52
2023-03-17T21:07:50.078Z,77.87
2023-03-17T21:10:17.379Z,79.23
2023-03-17T21:12:44.131Z,80.05
2023-03-17T21:15:12.980Z,79.75
2023-03-17T21:17:40.071Z,79.97
2023-03-17T21:20:09.551Z,80.38
2023-03-17T21:22:36.854Z,80.14
2023-03-17T21:25:05.086Z,80.71
2023-03-17T21:27:31.630Z,81.59
2023-03-17T21:29:58.061Z,82.28
2023-03-17T21:32:24.691Z,82.75
2023-03-17T21:34:51.386Z,81.96
2023-03-17T21:37:18.515Z,82.02
2023-03-17T21:39:45.819Z,81.79
2023-03-17T21:42:12.402Z,81.76
2023-03-17T21:44:39.767Z,82.09
2023-03-17T21:47:06.306Z,82.72
2023-03-17T21:49:32.798Z,83.95
2023-03-17T21:51:59.332Z,85.88
2023-03-17T21:54:25.786Z,86.88
2023-03-17T21:56:52.772Z,88.03
2023-03-17T21:59:20.971Z,89.80
2023-03-17T22:01:51.797Z,89.62
2023-03-17T22:04:18.600Z,91.49
2023-03-17T22:06:45.474Z,90.69
2023-03-17T22:09:12.968Z,91.50
2023-03-17T22:11:39.504Z,90.58
2023-03-17T22:14:06.485Z,89.98
2023-03-17T22:16:33.020Z,90.30
2023-03-17T22:18:59.876Z,91.16
2023-03-17T22:21:26.445Z,91.88
2023-03-17T22:23:53.013Z,93.58
2023-03-17T22:26:21.378Z,93.74
2023-03-17T22:28:49.441Z,93.59
2023-03-17T22:31:25.079Z,92.75
2023-03-17T22:33:55.268Z,94.83
2023-03-17T22:36:23.306Z,95.39
2023-03-17T22:38:50.201Z,95.27
2023-03-17T22:41:21.625Z,94.92
2023-03-17T22:43:48.168Z,96.47
2023-03-17T22:46:15.823Z,94.75
2023-03-17T22:48:42.397Z,93.84
2023-03-17T22:51:12.238Z,92.81
2023-03-17T22:53:40.336Z,93.43
2023-03-17T22:56:07.953Z,93.70
2023-03-17T22:58:34.935Z,92.90
2023-03-17T23:01:02.557Z,92.72
2023-03-17T23:03:29.662Z,93.27
2023-03-17T23:05:58.735Z,94.45
2023-03-17T23:08:27.753Z,95.01
2023-03-17T23:10:54.823Z,93.73
2023-03-17T23:13:22.309Z,95.20
2023-03-17T23:15:49.140Z,94.81
2023-03-17T23:18:16.087Z,94.24
2023-03-17T23:20:43.253Z,93.51
2023-03-17T23:23:11.523Z,93.27
2023-03-17T23:25:38.610Z,92.82
2023-03-17T23:28:06.844Z,93.23
2023-03-17T23:30:34.597Z,93.77
2023-03-17T23:33:01.845Z,95.98
2023-03-17T23:35:31.258Z,95.77
2023-03-17T23:37:57.742Z,97.06
2023-03-17T23:40:24.226Z,97.41
2023-03-17T23:42:52.104Z,97.59
2023-03-17T23:45:19.211Z,97.64
2023-03-17T23:47:47.101Z,98.12
2023-03-17T23:50:14.547Z,98.57
2023-03-17T23:52:42.465Z,98.93
2023-03-17T23:55:11.756Z,99.12
2023-03-17T23:57:38.796Z,98.54
